Private Wetterstation Grnau im Almtal
www.gruenau.tv

Wetterdaten: aktuell Sonntag, 19.08.2018 13:15
Datum Zeit Temperatur Temp. min Temp. max Luftfeuchte Luftdruck Regen Wind Richtung Richtung Sonne ET UV Solar Taupunkt Windchill Windben
19.08.2018 13:15 28,2 C 28,2 C 28,3 C 48 % 1018,0 hPa 0,0 l/m 7,9 km/h (2 Bft) N 1 55 min 0,584 mm 6,5 UV-I 823 W/m 16,1 C 28,0 C 16,1 km/h (3 Bft)
19.08.2018 12:15 27,7 C 27,7 C 27,9 C 51 % 1018,5 hPa 0,0 l/m 5,8 km/h (2 Bft) N 357 60 min 0,559 mm 6,3 UV-I 807 W/m 16,6 C 27,7 C 11,3 km/h (2 Bft)
19.08.2018 11:15 25,9 C 25,9 C 26,0 C 54 % 1018,9 hPa 0,0 l/m 11,3 km/h (2 Bft) W-NW 302 60 min 0,432 mm 5,1 UV-I 729 W/m 15,9 C 24,9 C 17,7 km/h (3 Bft)
19.08.2018 10:15 23,7 C 23,4 C 23,7 C 59 % 1019,4 hPa 0,0 l/m 1,5 km/h (1 Bft) N-NW 335 60 min 0,305 mm 3,4 UV-I 608 W/m 15,2 C 23,7 C 6,4 km/h (2 Bft)
19.08.2018 09:15 19,9 C 19,5 C 19,9 C 73 % 1019,8 hPa 0,0 l/m 4,0 km/h (1 Bft) SO 125 60 min 0,203 mm 1,9 UV-I 461 W/m 14,9 C 19,9 C 8,0 km/h (2 Bft)
19.08.2018 08:15 16,3 C 16,1 C 16,3 C 82 % 1019,9 hPa 0,0 l/m 6,2 km/h (2 Bft) S-SO 167 55 min 0,076 mm 0,8 UV-I 285 W/m 13,2 C 16,3 C 16,1 km/h (3 Bft)
19.08.2018 07:15 14,2 C 14,2 C 14,2 C 86 % 1019,9 hPa 0,0 l/m 8,5 km/h (2 Bft) O-SO 109 0 min 0,025 mm 0,0 UV-I 37 W/m 11,9 C 13,0 C 14,5 km/h (3 Bft)
19.08.2018 06:15 14,6 C 14,5 C 14,6 C 85 % 1019,7 hPa 0,0 l/m 7,5 km/h (2 Bft) O-SO 107 5 min 0,025 mm 0,0 UV-I 9 W/m 12,1 C 14,0 C 19,3 km/h (3 Bft)
19.08.2018 05:15 14,8 C 14,7 C 14,8 C 85 % 1019,5 hPa 0,0 l/m 6,7 km/h (2 Bft) S 173 0 min 0,025 mm 0,0 UV-I 0 W/m 12,3 C 14,6 C 14,5 km/h (3 Bft)
19.08.2018 04:15 14,8 C 14,8 C 14,9 C 85 % 1019,5 hPa 0,0 l/m 5,1 km/h (1 Bft) S-SO 155 0 min 0,025 mm 0,0 UV-I 0 W/m 12,3 C 14,8 C 12,9 km/h (3 Bft)
19.08.2018 03:15 15,3 C 15,3 C 15,4 C 84 % 1019,5 hPa 0,0 l/m 7,7 km/h (2 Bft) S-SO 167 0 min 0,025 mm 0,0 UV-I 0 W/m 12,6 C 14,6 C 14,5 km/h (3 Bft)
19.08.2018 02:15 15,7 C 15,7 C 15,7 C 83 % 1019,4 hPa 0,0 l/m 5,4 km/h (1 Bft) SO 128 0 min 0,025 mm 0,0 UV-I 0 W/m 12,8 C 15,7 C 12,9 km/h (3 Bft)
19.08.2018 01:15 16,1 C 16,1 C 16,2 C 82 % 1019,5 hPa 0,0 l/m 4,9 km/h (1 Bft) SO 126 0 min 0,025 mm 0,0 UV-I 0 W/m 13,0 C 16,1 C 9,7 km/h (2 Bft)
19.08.2018 00:15 16,9 C 16,9 C 16,9 C 80 % 1019,5 hPa 0,0 l/m 5,0 km/h (1 Bft) S-SO 147 0 min 0,025 mm 0,0 UV-I 0 W/m 13,4 C 16,9 C 9,7 km/h (2 Bft)
18.08.2018 23:15 18,0 C 18,0 C 18,1 C 76 % 1019,4 hPa 0,0 l/m 3,0 km/h (1 Bft) N-NO 14 0 min 0,025 mm 0,0 UV-I 0 W/m 13,7 C 18,0 C 6,4 km/h (2 Bft)
18.08.2018 22:15 19,0 C 18,9 C 19,1 C 72 % 1019,1 hPa 0,0 l/m 5,9 km/h (2 Bft) SO 137 0 min 0,025 mm 0,0 UV-I 0 W/m 13,8 C 19,0 C 11,3 km/h (2 Bft)
18.08.2018 21:15 20,8 C 20,8 C 20,9 C 67 % 1018,6 hPa 0,0 l/m 1,2 km/h (1 Bft) O 100 0 min 0,025 mm 0,0 UV-I 0 W/m 14,4 C 20,8 C 4,8 km/h (1 Bft)
18.08.2018 20:15 21,9 C 21,9 C 22,1 C 66 % 1017,8 hPa 0,0 l/m 1,2 km/h (1 Bft) N-NO 33 5 min 0,025 mm 0,0 UV-I 0 W/m 15,3 C 21,9 C 4,8 km/h (1 Bft)
18.08.2018 19:15 23,8 C 23,8 C 24,1 C 63 % 1017,1 hPa 0,0 l/m 0,0 km/h (0 Bft) N 360 0 min 0,102 mm 0,0 UV-I 39 W/m 16,3 C 23,8 C 0,0 km/h (0 Bft)
18.08.2018 16:35 27,6 C 27,5 C 27,8 C 46 % 1017,0 hPa 0,0 l/m 9,2 km/h (2 Bft) N 352 55 min 0,508 mm 2,3 UV-I 496 W/m 14,9 C 27,1 C 14,5 km/h (3 Bft)
18.08.2018 15:35 28,5 C 28,3 C 28,5 C 44 % 1017,1 hPa 0,0 l/m 7,3 km/h (2 Bft) W-NW 301 60 min 0,533 mm 4,0 UV-I 664 W/m 15,0 C 28,4 C 11,3 km/h (2 Bft)
18.08.2018 14:35 27,4 C 27,2 C 27,4 C 48 % 1017,5 hPa 0,0 l/m 8,6 km/h (2 Bft) N-NW 332 35 min 0,584 mm 5,3 UV-I 758 W/m 15,4 C 27,0 C 16,1 km/h (3 Bft)
18.08.2018 14:00 27,4 C 26,9 C 27,4 C 48 % 1017,9 hPa 0,0 l/m 8,0 km/h (2 Bft) N 360 0 min 0,584 mm 6,3 UV-I 819 W/m 15,4 C 27,1 C 17,7 km/h (3 Bft)
_ Min-Zeit 07:05 07:05 06:35 15:45 17:00 - 19:00 - - - - - - 05:55 07:20 19:15
Minimum _ 14,1 C 14,1 C 14,2 C 42 % 1016,9 hPa - 0,0 km/h (0 Bft) - - - - - - 11,8 C 12,5 C 0,0 km/h (0 Bft)
_ Max-Zeit 15:55 15:55 15:55 05:40 07:45 14:00 11:50 - - 17:30 14:00 13:00 12:30 12:05 15:55 11:50
Maximum _ 29,2 C 28,9 C 29,2 C 86 % 1020,0 hPa 0,0 l/m 16,3 km/h
N-NW (3 Bft)
- - 30 min 0,584 mm 6,6 UV-I 849 W/m 17,6 C 29,0 C 25,7 km/h
NW (4 Bft)
Durchschnitt _ 21,3 C 21,2 C 21,5 C 67 % 1018,7 hPa #0,0 l/m 5,9 km/h (2 Bft) SO - #5:55 h #2,359 mm 3,8 UV-I 469 W/m 14,3 C 21,1 C 12,5 km/h (3 Bft)
Rauscher Max - www.gruenau.tv